Time;durP1;ratioP1;P1;durP2;ratioP2;P2;SDS_P1;SDS_P2;PMS_P1;PMS_P2;Temp;Humidity;BMP_temperature;BMP_pressure;BME280_temperature;BME280_humidity;BME280_pressure;Samples;Min_cycle;Max_cycle;Signal;HPM_P1;HPM_P2
2022/09/26 00:00:08;;;;;;;6.40;5.80;;;;;;;;;;2087156;28;20047;-76
2022/09/26 00:01:28;;;;;;;5.00;4.60;;;;;;;;;;2084549;28;20025;-75
2022/09/26 00:02:47;;;;;;;5.10;4.70;;;;;;;;;;2078818;28;20041;-75
2022/09/26 00:04:08;;;;;;;4.47;3.90;;;;;;;;;;2074865;28;20038;-75
2022/09/26 00:05:31;;;;;;;4.05;3.75;;;;;;;;;;2083199;28;20485;-75
2022/09/26 00:06:51;;;;;;;4.25;3.83;;;;;;;;;;2087452;28;20029;-74
2022/09/26 00:08:10;;;;;;;5.65;4.05;;;;;;;;;;2088247;28;20033;-75
2022/09/26 00:09:29;;;;;;;4.18;3.83;;;;;;;;;;2069694;28;20944;-75
2022/09/26 00:10:53;;;;;;;4.07;3.85;;;;;;;;;;2085856;28;20029;-75
2022/09/26 00:12:13;;;;;;;4.38;3.97;;;;;;;;;;2074161;28;20030;-75
2022/09/26 00:13:33;;;;;;;4.00;3.70;;;;;;;;;;2080536;28;20440;-75
2022/09/26 00:14:52;;;;;;;4.00;3.65;;;;;;;;;;2082902;28;20045;-75
2022/09/26 00:16:11;;;;;;;3.70;3.40;;;;;;;;;;2087468;28;20025;-75
2022/09/26 00:17:30;;;;;;;3.78;3.50;;;;;;;;;;2087843;28;20029;-75
2022/09/26 00:18:50;;;;;;;3.60;3.40;;;;;;;;;;2074966;28;20034;-75
2022/09/26 00:20:09;;;;;;;4.68;3.45;;;;;;;;;;2080252;28;20832;-74
2022/09/26 00:21:29;;;;;;;3.63;3.42;;;;;;;;;;2086782;28;20036;-75
2022/09/26 00:22:47;;;;;;;3.97;3.67;;;;;;;;;;2087595;28;20421;-75
2022/09/26 00:24:07;;;;;;;4.00;3.50;;;;;;;;;;2088232;28;20025;-75
2022/09/26 00:25:26;;;;;;;3.80;3.50;;;;;;;;;;2088356;28;20386;-75
2022/09/26 00:26:44;;;;;;;3.78;3.58;;;;;;;;;;2079189;28;20052;-75
2022/09/26 00:28:03;;;;;;;4.32;3.92;;;;;;;;;;2083227;28;20654;-75
2022/09/26 00:29:22;;;;;;;4.13;3.92;;;;;;;;;;2078225;28;20442;-75
2022/09/26 00:30:42;;;;;;;4.20;3.90;;;;;;;;;;2075673;28;20029;-75
2022/09/26 00:32:01;;;;;;;3.50;3.30;;;;;;;;;;2076958;28;20025;-75
2022/09/26 00:33:20;;;;;;;3.47;3.28;;;;;;;;;;2083636;28;20588;-75
2022/09/26 00:34:39;;;;;;;3.50;3.30;;;;;;;;;;2087075;28;20037;-75
2022/09/26 00:35:58;;;;;;;3.45;3.22;;;;;;;;;;2087493;28;20033;-75
2022/09/26 00:37:17;;;;;;;3.40;3.20;;;;;;;;;;2088990;28;20029;-76
2022/09/26 00:38:36;;;;;;;3.83;3.35;;;;;;;;;;2079403;28;20037;-74
2022/09/26 00:39:55;;;;;;;2.70;2.60;;;;;;;;;;2082819;28;20025;-75
2022/09/26 00:41:15;;;;;;;3.15;2.97;;;;;;;;;;2087923;28;20025;-75
2022/09/26 00:42:33;;;;;;;3.10;2.95;;;;;;;;;;2088335;28;20057;-75
2022/09/26 00:43:53;;;;;;;3.35;3.15;;;;;;;;;;2079175;28;20029;-75
2022/09/26 00:45:13;;;;;;;3.45;3.17;;;;;;;;;;2081965;28;20112;-75
2022/09/26 00:46:36;;;;;;;3.33;3.13;;;;;;;;;;2079502;28;20163;-75
2022/09/26 00:47:59;;;;;;;3.10;2.90;;;;;;;;;;2074584;28;20030;-75
2022/09/26 00:49:30;;;;;;;3.90;3.60;;;;;;;;;;2084158;28;20026;-74
2022/09/26 00:50:49;;;;;;;5.60;5.10;;;;;;;;;;2086998;28;20028;-74
2022/09/26 00:52:22;;;;;;;10.82;8.20;;;;;;;;;;2078028;28;20038;-75
2022/09/26 00:53:42;;;;;;;9.02;7.60;;;;;;;;;;2082159;28;20021;-75
2022/09/26 00:55:03;;;;;;;7.35;6.65;;;;;;;;;;2084950;28;20045;-76
2022/09/26 00:56:24;;;;;;;10.57;7.70;;;;;;;;;;2084696;28;20112;-75
2022/09/26 00:57:47;;;;;;;12.13;9.65;;;;;;;;;;2085796;28;20033;-74
2022/09/26 00:59:25;;;;;;;12.57;9.43;;;;;;;;;;2087862;28;20037;-74
2022/09/26 01:00:45;;;;;;;16.05;9.98;;;;;;;;;;2078311;28;20049;-74
2022/09/26 01:02:04;;;;;;;13.57;10.60;;;;;;;;;;2082284;28;20033;-75
2022/09/26 01:03:24;;;;;;;11.35;8.10;;;;;;;;;;2087221;28;20146;-74
2022/09/26 01:04:44;;;;;;;9.73;7.47;;;;;;;;;;2087995;28;20134;-74
2022/09/26 01:06:03;;;;;;;5.80;5.30;;;;;;;;;;2085194;28;20454;-76
2022/09/26 01:07:23;;;;;;;4.75;4.35;;;;;;;;;;2079209;28;20065;-76
2022/09/26 01:08:50;;;;;;;5.30;4.80;;;;;;;;;;2084918;28;20037;-75
2022/09/26 01:10:09;;;;;;;6.60;5.03;;;;;;;;;;2086346;28;20020;-76
2022/09/26 01:11:28;;;;;;;7.35;6.65;;;;;;;;;;2078528;28;20030;-74
2022/09/26 01:12:47;;;;;;;7.68;6.97;;;;;;;;;;2084965;28;20025;-75
2022/09/26 01:14:07;;;;;;;8.35;7.22;;;;;;;;;;2076599;28;20587;-74
2022/09/26 01:15:26;;;;;;;8.63;7.78;;;;;;;;;;2078527;28;20038;-76
2022/09/26 01:16:46;;;;;;;13.93;9.70;;;;;;;;;;2084030;28;20046;-74
2022/09/26 01:18:06;;;;;;;8.02;7.13;;;;;;;;;;2076506;28;20096;-75
2022/09/26 01:19:49;;;;;;;7.32;6.63;;;;;;;;;;2071832;28;20026;-75
2022/09/26 01:21:27;;;;;;;9.43;6.30;;;;;;;;;;2086647;28;20390;-74
2022/09/26 01:22:49;;;;;;;7.75;6.47;;;;;;;;;;2088334;28;20131;-76
2022/09/26 01:24:28;;;;;;;7.28;6.57;;;;;;;;;;2087240;28;20486;-76
2022/09/26 01:25:50;;;;;;;7.68;6.93;;;;;;;;;;2086780;28;20402;-76
2022/09/26 01:27:24;;;;;;;8.02;6.38;;;;;;;;;;2085377;28;20440;-76
2022/09/26 01:29:01;;;;;;;7.15;6.32;;;;;;;;;;2088598;28;20021;-76
2022/09/26 01:30:21;;;;;;;5.85;5.25;;;;;;;;;;2086280;28;20064;-77
2022/09/26 01:33:50;;;;;;;6.25;5.70;;;;;;;;;;2086326;28;20037;-78
2022/09/26 01:35:28;;;;;;;5.30;4.90;;;;;;;;;;2085261;28;20013;-77
2022/09/26 01:37:01;;;;;;;5.28;4.88;;;;;;;;;;2087650;28;20025;-76
2022/09/26 01:38:25;;;;;;;5.95;5.43;;;;;;;;;;2085440;28;20479;-77
2022/09/26 01:39:53;;;;;;;7.50;6.78;;;;;;;;;;2086504;28;20425;-77
2022/09/26 01:41:32;;;;;;;8.18;7.10;;;;;;;;;;2087481;28;20021;-76
2022/09/26 01:43:01;;;;;;;6.10;5.50;;;;;;;;;;2087233;28;20041;-77
2022/09/26 01:44:41;;;;;;;5.03;4.65;;;;;;;;;;2085491;28;20618;-77
2022/09/26 01:46:03;;;;;;;4.38;3.45;;;;;;;;;;2087940;28;20482;-76
2022/09/26 01:47:30;;;;;;;3.85;3.58;;;;;;;;;;2085846;28;20056;-77
2022/09/26 01:48:55;;;;;;;3.13;2.92;;;;;;;;;;2086903;28;20022;-77
2022/09/26 01:50:25;;;;;;;3.45;3.25;;;;;;;;;;2087295;28;20494;-77
2022/09/26 01:51:50;;;;;;;3.80;3.50;;;;;;;;;;2079311;28;20033;-76
2022/09/26 01:53:21;;;;;;;4.22;3.05;;;;;;;;;;2086283;28;20017;-77
2022/09/26 01:54:43;;;;;;;3.58;3.28;;;;;;;;;;2086004;28;20112;-77
2022/09/26 01:56:05;;;;;;;4.03;3.83;;;;;;;;;;2087052;28;20057;-76
2022/09/26 01:57:27;;;;;;;3.80;3.60;;;;;;;;;;2083210;28;20061;-76
2022/09/26 01:58:46;;;;;;;3.50;3.00;;;;;;;;;;2086078;28;20394;-77
2022/09/26 02:00:07;;;;;;;3.40;3.20;;;;;;;;;;2077925;28;20026;-75
2022/09/26 02:01:28;;;;;;;3.58;3.38;;;;;;;;;;2079737;28;20030;-75
2022/09/26 02:02:48;;;;;;;3.13;2.95;;;;;;;;;;2078698;28;20506;-76
2022/09/26 02:04:09;;;;;;;3.15;2.95;;;;;;;;;;2084131;28;20108;-75
2022/09/26 02:05:33;;;;;;;3.00;2.90;;;;;;;;;;2083875;28;20489;-75
2022/09/26 02:07:00;;;;;;;5.47;3.70;;;;;;;;;;2085774;28;20037;-75
2022/09/26 02:08:23;;;;;;;5.07;3.75;;;;;;;;;;2087243;28;20490;-75
2022/09/26 02:09:57;;;;;;;3.55;3.25;;;;;;;;;;2087710;28;20025;-75
2022/09/26 02:11:17;;;;;;;3.88;3.58;;;;;;;;;;2083776;28;20730;-75
2022/09/26 02:12:38;;;;;;;3.75;3.45;;;;;;;;;;2079736;28;20041;-74
2022/09/26 02:14:02;;;;;;;3.72;3.53;;;;;;;;;;2085536;28;20529;-75
2022/09/26 02:15:24;;;;;;;4.20;3.20;;;;;;;;;;2088307;28;20032;-75
2022/09/26 02:16:48;;;;;;;3.83;3.50;;;;;;;;;;2076195;28;20053;-75
2022/09/26 02:18:12;;;;;;;3.75;3.47;;;;;;;;;;2078681;28;20041;-75
2022/09/26 02:19:35;;;;;;;3.80;3.60;;;;;;;;;;2077195;28;20502;-75
2022/09/26 02:20:57;;;;;;;3.78;3.45;;;;;;;;;;2083645;28;20033;-75
2022/09/26 02:22:16;;;;;;;3.70;3.50;;;;;;;;;;2078993;28;20038;-75
2022/09/26 02:23:35;;;;;;;3.85;3.60;;;;;;;;;;2085120;28;20013;-75
2022/09/26 02:24:54;;;;;;;4.07;3.78;;;;;;;;;;2088007;28;20025;-76
2022/09/26 02:26:13;;;;;;;4.00;3.80;;;;;;;;;;2088303;28;20029;-75
2022/09/26 02:27:32;;;;;;;3.72;3.47;;;;;;;;;;2088728;28;20029;-75
2022/09/26 02:28:51;;;;;;;3.53;3.33;;;;;;;;;;2088477;28;20502;-75
2022/09/26 02:30:10;;;;;;;3.15;3.03;;;;;;;;;;2080641;28;20041;-75
2022/09/26 02:31:31;;;;;;;3.90;3.53;;;;;;;;;;2082784;28;20017;-75
2022/09/26 02:32:50;;;;;;;4.00;3.70;;;;;;;;;;2086367;28;20531;-75
2022/09/26 02:34:10;;;;;;;4.38;3.63;;;;;;;;;;2079989;28;20045;-75
2022/09/26 02:37:07;;;;;;;3.75;3.45;;;;;;;;;;2087355;28;20048;-77
2022/09/26 02:38:28;;;;;;;3.78;3.58;;;;;;;;;;2088504;28;20041;-77
2022/09/26 02:39:48;;;;;;;4.03;3.63;;;;;;;;;;2081169;28;20065;-74
2022/09/26 02:41:21;;;;;;;4.03;3.83;;;;;;;;;;2084030;28;20403;-74
2022/09/26 02:42:46;;;;;;;4.15;3.42;;;;;;;;;;2088425;28;20049;-75
2022/09/26 02:44:05;;;;;;;4.20;3.63;;;;;;;;;;2080752;28;20821;-74
2022/09/26 02:45:27;;;;;;;3.80;3.50;;;;;;;;;;2085371;28;20115;-76
2022/09/26 02:47:00;;;;;;;3.80;3.60;;;;;;;;;;2086338;28;20108;-75
2022/09/26 02:48:38;;;;;;;3.78;3.42;;;;;;;;;;2089135;28;20029;-75
2022/09/26 02:49:59;;;;;;;3.28;3.17;;;;;;;;;;2078839;28;20108;-77
2022/09/26 02:51:37;;;;;;;4.13;3.70;;;;;;;;;;2082982;28;20107;-77
2022/09/26 02:53:10;;;;;;;4.45;4.00;;;;;;;;;;2079444;28;20463;-77
2022/09/26 02:54:48;;;;;;;3.83;3.53;;;;;;;;;;2084332;28;20036;-77
2022/09/26 02:56:08;;;;;;;3.92;3.70;;;;;;;;;;2088670;28;20584;-77
2022/09/26 02:57:29;;;;;;;4.47;3.72;;;;;;;;;;2088123;28;20040;-75
2022/09/26 02:59:01;;;;;;;4.38;3.97;;;;;;;;;;2086755;28;20493;-75
2022/09/26 03:00:20;;;;;;;4.45;4.05;;;;;;;;;;2089455;28;20057;-75
2022/09/26 03:01:43;;;;;;;5.00;3.85;;;;;;;;;;2086963;28;20068;-74
2022/09/26 03:03:02;;;;;;;4.15;3.95;;;;;;;;;;2089000;28;20037;-74
2022/09/26 03:04:30;;;;;;;4.85;4.38;;;;;;;;;;2089344;28;20021;-75
2022/09/26 03:05:50;;;;;;;4.70;4.30;;;;;;;;;;2088756;28;20036;-75
2022/09/26 03:07:11;;;;;;;4.65;4.35;;;;;;;;;;2087906;28;20037;-74
2022/09/26 03:08:34;;;;;;;5.03;4.63;;;;;;;;;;2088806;28;20021;-74
2022/09/26 03:09:55;;;;;;;5.97;5.00;;;;;;;;;;2089158;28;20386;-74
2022/09/26 03:11:18;;;;;;;4.90;4.43;;;;;;;;;;2086254;28;20021;-74
2022/09/26 03:12:38;;;;;;;5.85;4.55;;;;;;;;;;2077246;28;20029;-75
2022/09/26 03:13:57;;;;;;;4.82;4.40;;;;;;;;;;2085914;28;20414;-75
2022/09/26 03:15:17;;;;;;;5.20;4.80;;;;;;;;;;2086943;28;20037;-75
2022/09/26 03:16:38;;;;;;;4.68;4.38;;;;;;;;;;2088506;28;20036;-75
2022/09/26 03:17:58;;;;;;;4.10;3.90;;;;;;;;;;2077829;28;20033;-74
2022/09/26 03:19:26;;;;;;;5.18;4.68;;;;;;;;;;2084331;28;20032;-75
2022/09/26 03:20:45;;;;;;;5.18;4.88;;;;;;;;;;2087567;28;20029;-74
2022/09/26 03:22:04;;;;;;;4.93;4.57;;;;;;;;;;2083979;28;20029;-75
2022/09/26 03:23:24;;;;;;;4.40;4.10;;;;;;;;;;2088941;28;20033;-75
2022/09/26 03:24:43;;;;;;;4.50;4.20;;;;;;;;;;2089033;28;21323;-76
2022/09/26 03:26:07;;;;;;;4.53;4.05;;;;;;;;;;2087791;28;20025;-75
2022/09/26 03:27:26;;;;;;;4.10;3.83;;;;;;;;;;2085840;28;20029;-75
2022/09/26 03:28:45;;;;;;;8.93;4.15;;;;;;;;;;2087210;28;20025;-75
2022/09/26 03:30:04;;;;;;;4.57;4.28;;;;;;;;;;2087130;28;20474;-75
2022/09/26 03:31:24;;;;;;;4.78;4.28;;;;;;;;;;2081098;28;20546;-77
2022/09/26 03:32:43;;;;;;;4.13;3.83;;;;;;;;;;2083561;28;20036;-77
2022/09/26 03:34:01;;;;;;;4.20;4.00;;;;;;;;;;2088526;28;20470;-77
2022/09/26 03:35:21;;;;;;;5.28;4.13;;;;;;;;;;2088577;28;20047;-77
2022/09/26 03:36:40;;;;;;;4.40;4.00;;;;;;;;;;2087227;28;20028;-77
2022/09/26 03:37:59;;;;;;;4.45;4.10;;;;;;;;;;2078080;28;20041;-76
2022/09/26 03:39:18;;;;;;;4.43;4.03;;;;;;;;;;2083669;28;20045;-76
2022/09/26 03:40:38;;;;;;;4.15;3.88;;;;;;;;;;2087713;28;20394;-77
2022/09/26 03:41:57;;;;;;;3.78;3.58;;;;;;;;;;2084655;28;20029;-77
2022/09/26 03:43:16;;;;;;;4.97;3.50;;;;;;;;;;2085898;28;20045;-77
2022/09/26 03:44:35;;;;;;;3.30;3.10;;;;;;;;;;2087032;28;20033;-77
2022/09/26 03:45:54;;;;;;;3.30;3.10;;;;;;;;;;2086678;28;20107;-77
2022/09/26 03:47:14;;;;;;;4.07;3.15;;;;;;;;;;2085385;28;20029;-77
2022/09/26 03:48:33;;;;;;;2.90;2.80;;;;;;;;;;2088822;28;20029;-77
2022/09/26 03:49:52;;;;;;;3.75;3.40;;;;;;;;;;2078503;28;20034;-77
2022/09/26 03:51:12;;;;;;;3.20;3.00;;;;;;;;;;2082178;28;20017;-77
2022/09/26 03:52:30;;;;;;;4.60;3.10;;;;;;;;;;2087578;28;20025;-77
2022/09/26 03:53:50;;;;;;;2.90;2.65;;;;;;;;;;2087158;28;20049;-77
2022/09/26 03:55:10;;;;;;;3.10;2.90;;;;;;;;;;2079252;28;20033;-77
2022/09/26 03:56:29;;;;;;;5.55;2.88;;;;;;;;;;2087125;28;20067;-77
2022/09/26 03:57:48;;;;;;;2.67;2.53;;;;;;;;;;2086203;28;20037;-77
2022/09/26 03:59:07;;;;;;;3.63;2.90;;;;;;;;;;2087156;28;20603;-77
2022/09/26 04:00:26;;;;;;;2.90;2.70;;;;;;;;;;2079982;28;20108;-77
2022/09/26 04:01:49;;;;;;;3.67;3.35;;;;;;;;;;2083272;28;20029;-76
2022/09/26 04:03:09;;;;;;;3.15;2.65;;;;;;;;;;2087858;28;20029;-77
2022/09/26 04:04:28;;;;;;;3.22;2.88;;;;;;;;;;2087561;28;20038;-77
2022/09/26 04:05:47;;;;;;;3.00;2.80;;;;;;;;;;2088477;28;20037;-76
2022/09/26 04:07:06;;;;;;;2.72;2.63;;;;;;;;;;2088855;28;20025;-77
2022/09/26 04:08:24;;;;;;;2.95;2.70;;;;;;;;;;2086763;28;20068;-77
2022/09/26 04:09:43;;;;;;;3.10;2.90;;;;;;;;;;2079527;28;20387;-76
2022/09/26 04:11:04;;;;;;;2.63;2.50;;;;;;;;;;2079451;28;20037;-77
2022/09/26 04:12:23;;;;;;;2.50;2.40;;;;;;;;;;2076741;28;20053;-77
2022/09/26 04:13:44;;;;;;;3.03;2.78;;;;;;;;;;2075894;28;20033;-77
2022/09/26 04:15:05;;;;;;;2.38;2.28;;;;;;;;;;2076842;28;20022;-77
2022/09/26 04:16:24;;;;;;;2.42;2.33;;;;;;;;;;2080086;28;20030;-76
2022/09/26 04:17:43;;;;;;;3.20;3.00;;;;;;;;;;2075176;28;20544;-77
2022/09/26 04:19:02;;;;;;;2.80;2.58;;;;;;;;;;2082945;28;20112;-78
2022/09/26 04:20:21;;;;;;;2.80;2.60;;;;;;;;;;2088048;28;20021;-76
2022/09/26 04:21:40;;;;;;;3.10;2.90;;;;;;;;;;2087873;28;21511;-76
2022/09/26 04:22:59;;;;;;;3.10;2.83;;;;;;;;;;2079762;28;20033;-77
2022/09/26 04:24:20;;;;;;;3.00;2.80;;;;;;;;;;2076505;28;20029;-78
2022/09/26 04:25:39;;;;;;;3.30;3.00;;;;;;;;;;2083367;28;20390;-77
2022/09/26 04:26:58;;;;;;;3.38;3.08;;;;;;;;;;2079161;28;20057;-78
2022/09/26 04:28:17;;;;;;;3.63;3.00;;;;;;;;;;2085412;28;20021;-79
2022/09/26 04:29:36;;;;;;;3.47;3.25;;;;;;;;;;2078275;28;20526;-78
2022/09/26 04:31:02;;;;;;;3.53;3.15;;;;;;;;;;2075778;28;20029;-77
2022/09/26 04:32:21;;;;;;;4.55;2.80;;;;;;;;;;2084394;28;20033;-77
2022/09/26 04:33:40;;;;;;;3.45;3.00;;;;;;;;;;2085736;28;20029;-78
2022/09/26 04:34:59;;;;;;;4.18;3.10;;;;;;;;;;2088765;28;20037;-77
2022/09/26 04:36:18;;;;;;;5.15;3.45;;;;;;;;;;2088525;28;20029;-77
2022/09/26 04:37:37;;;;;;;3.63;3.28;;;;;;;;;;2087908;28;20024;-77
2022/09/26 04:38:59;;;;;;;3.08;2.72;;;;;;;;;;2082003;28;20048;-78
2022/09/26 04:40:18;;;;;;;2.55;2.40;;;;;;;;;;2082989;28;20088;-79
2022/09/26 04:41:38;;;;;;;4.25;2.60;;;;;;;;;;2077648;28;20029;-78
2022/09/26 04:42:57;;;;;;;2.30;2.20;;;;;;;;;;2078925;28;20037;-79
2022/09/26 04:44:16;;;;;;;3.17;2.88;;;;;;;;;;2074784;28;20034;-78
2022/09/26 04:45:35;;;;;;;2.97;2.78;;;;;;;;;;2077116;28;20529;-79
2022/09/26 04:46:54;;;;;;;2.85;2.65;;;;;;;;;;2083968;28;20401;-78
2022/09/26 04:48:13;;;;;;;3.63;3.40;;;;;;;;;;2086794;28;20052;-78
2022/09/26 04:49:32;;;;;;;2.92;2.72;;;;;;;;;;2076681;28;20033;-78
2022/09/26 04:50:51;;;;;;;2.53;2.33;;;;;;;;;;2075966;28;20030;-78
2022/09/26 04:52:13;;;;;;;3.10;2.90;;;;;;;;;;2084155;28;20104;-79
2022/09/26 04:53:33;;;;;;;2.90;2.70;;;;;;;;;;2087432;28;20029;-78
2022/09/26 04:54:52;;;;;;;3.15;2.85;;;;;;;;;;2087275;28;20036;-78
2022/09/26 04:56:12;;;;;;;2.33;2.22;;;;;;;;;;2088035;28;20029;-78
2022/09/26 04:57:32;;;;;;;2.95;2.72;;;;;;;;;;2087220;28;20107;-78
2022/09/26 04:58:53;;;;;;;4.43;2.80;;;;;;;;;;2078892;28;20159;-77
2022/09/26 05:00:13;;;;;;;3.17;2.90;;;;;;;;;;2084843;28;20029;-77
2022/09/26 05:01:32;;;;;;;3.58;3.25;;;;;;;;;;2085801;28;20056;-77
2022/09/26 05:02:51;;;;;;;3.50;3.03;;;;;;;;;;2079662;28;20402;-77
2022/09/26 05:04:11;;;;;;;3.42;2.90;;;;;;;;;;2083773;28;20490;-78
2022/09/26 05:05:32;;;;;;;4.57;3.13;;;;;;;;;;2076844;28;20029;-78
2022/09/26 05:06:51;;;;;;;3.17;2.70;;;;;;;;;;2076246;28;20508;-79
2022/09/26 05:08:10;;;;;;;3.45;3.15;;;;;;;;;;2084010;28;20033;-78
2022/09/26 05:09:29;;;;;;;4.90;3.13;;;;;;;;;;2085695;28;20502;-77
2022/09/26 05:10:53;;;;;;;4.95;3.13;;;;;;;;;;2074456;28;20498;-76
2022/09/26 05:12:12;;;;;;;3.10;2.90;;;;;;;;;;2082922;28;20119;-77
2022/09/26 05:13:32;;;;;;;3.58;3.28;;;;;;;;;;2078462;28;20029;-78
2022/09/26 05:14:52;;;;;;;2.97;2.78;;;;;;;;;;2081479;28;20060;-77
2022/09/26 05:16:13;;;;;;;3.58;3.03;;;;;;;;;;2088448;28;20033;-77
2022/09/26 05:17:33;;;;;;;3.65;2.90;;;;;;;;;;2078249;28;20045;-78
2022/09/26 05:18:52;;;;;;;3.38;3.17;;;;;;;;;;2085010;28;20044;-79
2022/09/26 05:20:11;;;;;;;4.63;3.28;;;;;;;;;;2086662;28;20494;-76
2022/09/26 05:21:30;;;;;;;5.72;3.20;;;;;;;;;;2084460;28;20525;-76
2022/09/26 05:22:49;;;;;;;5.03;3.42;;;;;;;;;;2073049;28;20033;-76
2022/09/26 05:27:24;;;;;;;3.42;3.17;;;;;;;;;;2085411;28;20527;-76
2022/09/26 05:28:42;;;;;;;4.07;3.70;;;;;;;;;;2077603;28;20144;-77
2022/09/26 05:30:02;;;;;;;6.60;3.85;;;;;;;;;;2074908;28;20069;-77
2022/09/26 05:31:24;;;;;;;5.63;3.78;;;;;;;;;;2083102;28;20033;-76
2022/09/26 05:32:47;;;;;;;6.70;3.70;;;;;;;;;;2087134;28;20149;-76
2022/09/26 05:34:07;;;;;;;4.22;3.83;;;;;;;;;;2085637;28;20545;-76
2022/09/26 05:35:28;;;;;;;7.28;4.15;;;;;;;;;;2086582;28;20045;-77
2022/09/26 05:36:48;;;;;;;7.00;3.83;;;;;;;;;;2086788;28;20060;-77
2022/09/26 05:38:07;;;;;;;3.80;3.45;;;;;;;;;;2080494;28;20073;-75
2022/09/26 05:41:03;;;;;;;5.85;3.40;;;;;;;;;;2084401;28;20405;-76
2022/09/26 05:42:22;;;;;;;3.40;3.17;;;;;;;;;;2074847;28;20041;-77
2022/09/26 05:43:41;;;;;;;3.63;3.42;;;;;;;;;;2083829;28;20025;-77
2022/09/26 05:45:02;;;;;;;4.70;3.88;;;;;;;;;;2084888;28;20021;-77
2022/09/26 05:46:21;;;;;;;5.78;3.97;;;;;;;;;;2087629;28;20029;-77
2022/09/26 05:47:40;;;;;;;3.45;3.10;;;;;;;;;;2085361;28;20032;-76
2022/09/26 05:48:59;;;;;;;4.00;3.67;;;;;;;;;;2087077;28;20489;-77
2022/09/26 05:50:21;;;;;;;4.60;4.15;;;;;;;;;;2086506;28;20017;-77
2022/09/26 05:51:40;;;;;;;7.57;3.45;;;;;;;;;;2079021;28;20041;-78
2022/09/26 05:53:00;;;;;;;4.53;3.40;;;;;;;;;;2076525;28;20030;-78
2022/09/26 05:54:18;;;;;;;4.05;3.63;;;;;;;;;;2084273;28;20033;-79
2022/09/26 05:55:37;;;;;;;3.92;3.15;;;;;;;;;;2080676;28;20034;-77
2022/09/26 05:56:56;;;;;;;4.00;3.67;;;;;;;;;;2083465;28;20029;-78
2022/09/26 05:58:17;;;;;;;3.80;3.47;;;;;;;;;;2086194;28;20494;-77
2022/09/26 05:59:36;;;;;;;5.18;3.50;;;;;;;;;;2086689;28;20040;-77
2022/09/26 06:01:09;;;;;;;4.43;3.78;;;;;;;;;;2079483;28;20414;-77
2022/09/26 06:02:28;;;;;;;7.38;3.65;;;;;;;;;;2085630;28;20029;-77
2022/09/26 06:03:46;;;;;;;4.63;3.80;;;;;;;;;;2086723;28;20037;-77
2022/09/26 06:05:06;;;;;;;4.63;4.20;;;;;;;;;;2087281;28;20446;-77
2022/09/26 06:06:24;;;;;;;4.35;4.03;;;;;;;;;;2079586;28;20398;-77
2022/09/26 06:07:44;;;;;;;4.55;4.03;;;;;;;;;;2085622;28;20100;-77
2022/09/26 06:09:05;;;;;;;4.55;4.05;;;;;;;;;;2088253;28;20482;-77
2022/09/26 06:10:24;;;;;;;5.80;4.32;;;;;;;;;;2080159;28;20120;-77
2022/09/26 06:11:43;;;;;;;5.15;4.20;;;;;;;;;;2083236;28;20020;-77
2022/09/26 06:13:02;;;;;;;5.15;4.55;;;;;;;;;;2090537;28;20025;-77
2022/09/26 06:14:24;;;;;;;5.35;4.95;;;;;;;;;;2088058;28;20041;-77
2022/09/26 06:15:43;;;;;;;5.60;5.10;;;;;;;;;;2076596;28;20543;-77
2022/09/26 06:17:02;;;;;;;6.35;5.68;;;;;;;;;;2079240;28;20041;-77
2022/09/26 06:18:22;;;;;;;5.75;5.32;;;;;;;;;;2077273;28;20518;-77
2022/09/26 06:19:41;;;;;;;5.82;5.32;;;;;;;;;;2076094;28;20029;-77
2022/09/26 06:21:03;;;;;;;6.38;4.97;;;;;;;;;;2072116;28;20034;-77
2022/09/26 06:22:23;;;;;;;6.88;5.75;;;;;;;;;;2084132;28;20033;-76
2022/09/26 06:23:42;;;;;;;6.63;5.72;;;;;;;;;;2080357;28;20022;-76
2022/09/26 06:25:01;;;;;;;7.30;5.13;;;;;;;;;;2085329;28;20037;-76
2022/09/26 06:26:22;;;;;;;6.95;5.72;;;;;;;;;;2089864;28;20132;-75
2022/09/26 06:27:41;;;;;;;5.95;5.43;;;;;;;;;;2079269;28;20025;-76
2022/09/26 06:29:00;;;;;;;5.75;5.25;;;;;;;;;;2083526;28;20033;-76
2022/09/26 06:30:20;;;;;;;5.63;5.10;;;;;;;;;;2087471;28;20052;-76
2022/09/26 06:31:39;;;;;;;5.93;5.32;;;;;;;;;;2087006;28;20029;-76
2022/09/26 06:32:58;;;;;;;6.90;5.40;;;;;;;;;;2086571;28;20501;-75
2022/09/26 06:34:17;;;;;;;6.32;5.80;;;;;;;;;;2085960;28;20032;-76
2022/09/26 06:35:36;;;;;;;6.55;5.80;;;;;;;;;;2084431;28;20034;-76
2022/09/26 06:36:55;;;;;;;6.80;6.10;;;;;;;;;;2080635;28;20073;-76
2022/09/26 06:38:14;;;;;;;5.50;5.10;;;;;;;;;;2074573;28;20065;-76
2022/09/26 06:39:36;;;;;;;5.80;5.40;;;;;;;;;;2082058;28;20504;-76
2022/09/26 06:40:55;;;;;;;5.72;5.30;;;;;;;;;;2081163;28;20045;-76
2022/09/26 06:42:14;;;;;;;5.40;5.00;;;;;;;;;;2082291;28;20041;-76
2022/09/26 06:43:33;;;;;;;5.65;5.15;;;;;;;;;;2078390;28;20449;-77
2022/09/26 06:44:52;;;;;;;5.57;5.18;;;;;;;;;;2076454;28;20025;-76
2022/09/26 06:46:11;;;;;;;5.07;4.10;;;;;;;;;;2072587;28;20037;-76
2022/09/26 06:47:30;;;;;;;4.72;4.32;;;;;;;;;;2081361;28;20390;-76
2022/09/26 06:48:49;;;;;;;5.03;3.80;;;;;;;;;;2077873;28;20348;-76
2022/09/26 06:50:09;;;;;;;4.85;4.35;;;;;;;;;;2084744;28;20021;-76
2022/09/26 06:51:28;;;;;;;4.70;4.40;;;;;;;;;;2087038;28;20033;-76
2022/09/26 06:52:47;;;;;;;5.53;4.50;;;;;;;;;;2087517;28;20033;-76
2022/09/26 06:54:06;;;;;;;4.45;3.88;;;;;;;;;;2088044;28;20033;-76
2022/09/26 06:55:25;;;;;;;4.55;4.18;;;;;;;;;;2083523;28;20108;-76
2022/09/26 06:56:44;;;;;;;5.07;4.78;;;;;;;;;;2076699;28;20038;-77
2022/09/26 06:58:02;;;;;;;4.28;3.97;;;;;;;;;;2084711;28;20029;-77
2022/09/26 06:59:22;;;;;;;4.93;4.53;;;;;;;;;;2084146;28;20509;-77
2022/09/26 07:00:41;;;;;;;5.03;4.60;;;;;;;;;;2086606;28;20033;-77
2022/09/26 07:01:59;;;;;;;4.50;4.18;;;;;;;;;;2087224;28;20029;-77
2022/09/26 07:03:18;;;;;;;4.80;4.45;;;;;;;;;;2085309;28;20017;-77
2022/09/26 07:04:37;;;;;;;4.82;4.53;;;;;;;;;;2077915;28;20514;-77
2022/09/26 07:05:56;;;;;;;4.50;4.10;;;;;;;;;;2080879;28;20036;-77
2022/09/26 07:07:15;;;;;;;4.68;4.32;;;;;;;;;;2085866;28;20028;-77
2022/09/26 07:08:34;;;;;;;4.57;4.28;;;;;;;;;;2084203;28;20029;-77
2022/09/26 07:09:53;;;;;;;4.45;3.90;;;;;;;;;;2086619;28;20029;-77
2022/09/26 07:11:12;;;;;;;4.28;3.78;;;;;;;;;;2085420;28;20021;-77
2022/09/26 07:12:31;;;;;;;5.82;5.07;;;;;;;;;;2084495;28;20029;-77
2022/09/26 07:13:50;;;;;;;5.13;4.57;;;;;;;;;;2076562;28;20121;-77
2022/09/26 07:15:12;;;;;;;5.05;4.55;;;;;;;;;;2084514;28;20033;-77
2022/09/26 07:16:31;;;;;;;5.85;4.60;;;;;;;;;;2078728;28;20470;-77
2022/09/26 07:17:50;;;;;;;5.35;4.95;;;;;;;;;;2082489;28;20028;-77
2022/09/26 07:19:10;;;;;;;6.15;5.55;;;;;;;;;;2087266;28;20021;-77
2022/09/26 07:20:31;;;;;;;6.47;5.78;;;;;;;;;;2089589;28;20116;-77
2022/09/26 07:21:50;;;;;;;7.40;5.10;;;;;;;;;;2087722;28;20478;-77
2022/09/26 07:23:09;;;;;;;5.75;5.15;;;;;;;;;;2078222;28;20045;-77
2022/09/26 07:24:28;;;;;;;5.55;5.07;;;;;;;;;;2082812;28;20457;-77
2022/09/26 07:25:47;;;;;;;6.07;5.65;;;;;;;;;;2079772;28;20507;-78
2022/09/26 07:27:06;;;;;;;5.97;5.57;;;;;;;;;;2075044;28;20124;-77
2022/09/26 07:28:26;;;;;;;5.18;4.72;;;;;;;;;;2076115;28;20100;-78
2022/09/26 07:29:46;;;;;;;5.20;4.75;;;;;;;;;;2076184;28;20965;-79
2022/09/26 07:31:06;;;;;;;5.63;4.82;;;;;;;;;;2083368;28;20033;-79
2022/09/26 07:32:25;;;;;;;5.47;4.65;;;;;;;;;;2088644;28;20037;-78
2022/09/26 07:33:44;;;;;;;6.10;5.30;;;;;;;;;;2086000;28;20025;-77
2022/09/26 07:35:03;;;;;;;5.88;4.82;;;;;;;;;;2088893;28;20033;-78
2022/09/26 07:36:22;;;;;;;5.32;5.03;;;;;;;;;;2076881;28;20406;-78
2022/09/26 07:37:42;;;;;;;5.75;5.28;;;;;;;;;;2078928;28;20410;-78
2022/09/26 07:39:01;;;;;;;4.75;4.45;;;;;;;;;;2085555;28;20029;-77
2022/09/26 07:40:20;;;;;;;8.02;5.93;;;;;;;;;;2088770;28;20017;-77
2022/09/26 07:41:39;;;;;;;5.80;5.38;;;;;;;;;;2078760;28;20029;-78
2022/09/26 07:42:59;;;;;;;8.02;6.10;;;;;;;;;;2082780;28;20635;-78
2022/09/26 07:44:18;;;;;;;5.70;5.30;;;;;;;;;;2077703;28;20909;-78
2022/09/26 07:50:31;;;;;;;5.93;5.53;;;;;;;;;;2088764;28;20060;-78
2022/09/26 07:51:54;;;;;;;5.55;5.10;;;;;;;;;;2085600;28;20025;-76
2022/09/26 07:53:13;;;;;;;;;;;;;;;;;;2087874;28;20037;-79
2022/09/26 07:54:34;;;;;;;5.40;4.90;;;;;;;;;;2079695;28;19928;-77
2022/09/26 07:56:04;;;;;;;7.22;5.40;;;;;;;;;;2083936;28;20028;-77
2022/09/26 07:57:23;;;;;;;5.50;5.10;;;;;;;;;;2085286;28;20490;-77
2022/09/26 07:58:43;;;;;;;5.75;5.15;;;;;;;;;;2077481;28;20029;-77
2022/09/26 08:00:08;;;;;;;5.88;5.38;;;;;;;;;;2080725;28;20112;-78
2022/09/26 08:01:27;;;;;;;6.05;5.53;;;;;;;;;;2075095;28;20096;-78
2022/09/26 08:02:47;;;;;;;9.07;5.20;;;;;;;;;;2076821;28;20049;-78
2022/09/26 08:04:08;;;;;;;6.13;5.53;;;;;;;;;;2083436;28;20057;-76
2022/09/26 08:05:28;;;;;;;5.07;4.55;;;;;;;;;;2087328;28;20025;-77
2022/09/26 08:06:48;;;;;;;5.28;4.88;;;;;;;;;;2085014;28;20516;-78
2022/09/26 08:08:07;;;;;;;4.25;3.95;;;;;;;;;;2085593;28;20037;-77
2022/09/26 08:09:27;;;;;;;6.78;4.68;;;;;;;;;;2087250;28;20029;-76
2022/09/26 08:10:46;;;;;;;5.03;4.57;;;;;;;;;;2079458;28;20022;-78
2022/09/26 08:12:05;;;;;;;4.63;4.25;;;;;;;;;;2074289;28;20055;-77
2022/09/26 08:13:24;;;;;;;8.20;4.38;;;;;;;;;;2074395;28;20577;-77
2022/09/26 08:14:50;;;;;;;4.32;3.95;;;;;;;;;;2075036;28;20112;-78
2022/09/26 08:16:10;;;;;;;4.63;4.32;;;;;;;;;;2083115;28;20021;-78
2022/09/26 08:17:31;;;;;;;4.60;4.20;;;;;;;;;;2086352;28;20040;-78
2022/09/26 08:18:51;;;;;;;5.78;4.20;;;;;;;;;;2077153;28;21234;-78